aviador You're here:

CYDN Decoded Metar

DAUPHIN in MB, CANADA
Report Time2017-04-25 06:00:00
UTC Time2017-04-25 06:27:33
Flight Rules vfr VFR
Wind030° at 13 kt
W.Decomp.*RWY 02: 13.0 kt HW 0.7 kt RCW
RWY 08: 7.1 kt HW 10.9 kt LCW
RWY 32: 5.9 kt HW 11.6 kt RCW
W.Rank030° ranks 14
Current wind is above 030° avg. (9.0)
Visibility9999 m
Phenomena:N/A
Clouds:Scattered 065 Hf
Overcast 086 Hf
Expected CloudBase > 2,400 ft AGL from Temp-Dew spread
Ceiling8,600 ft
Temp-1°C (ISA -14)
Dew Point-7°C (64% RH)
AAT-8.5°C
QNH1014 hPa
Density Alt-692 ft
Elevation1,001 ft
Report Wrong Elevation
Raw Report
CYDN 250600Z AUTO 03013KT 9SM SCT065 OVC086 M01/M07 A2995 RMK
SLP162=

Extra information for CYDN:More info

Metar Taf Metar & Taf Last 4 Metars F.Rules Stats Wind Profile Meteogram Temp Stats Airport Information Weather charts Add Link Nearby VenuesMetar ALERT Operation Metar Decoded Social comments